Browns Valley, California
Current Conditions -  °F | °C
As of 8:59 PM on Wednesday 22 Oct 2014 (Local Time) from KBAB Reporting Station
Broken Clouds Broken Clouds  
Wind Chill: 64°   Ceiling: 20000
Heat Index: 64°   Visibility: 10mi
Dew Point: 43°   Wind: 3mph
Humidity: 45%   Direction: 120°ESE
Pressure: 30.01"   Gusts: NA
Location:  39.24°N, 121.41°W
Report Text: KBAB 230359Z 12003KT 10SM BKN200 18/06 A3001 RMK AO2A SLP238 $
Loading
Personal Weather Stations






























Interactive Weather Map
Tropical Storm Tracking
New forecast layout! Learn more

10-Day Weather Forecast

Advertisements
Track Severe Weather on mobile